sensor_id;sensor_type;location;lat;lon;timestamp;temperature;humidity
61253;DHT22;47127;47.516;8.596;2023-04-10T00:02:18;7.30;99.90
61253;DHT22;47127;47.516;8.596;2023-04-10T00:04:44;7.30;99.90
61253;DHT22;47127;47.516;8.596;2023-04-10T00:07:11;7.30;99.90
61253;DHT22;47127;47.516;8.596;2023-04-10T00:09:37;7.30;99.90
61253;DHT22;47127;47.516;8.596;2023-04-10T00:12:03;7.50;99.90
61253;DHT22;47127;47.516;8.596;2023-04-10T00:14:29;7.50;99.90
61253;DHT22;47127;47.516;8.596;2023-04-10T00:16:54;7.50;99.90
61253;DHT22;47127;47.516;8.596;2023-04-10T00:19:20;7.50;99.90
61253;DHT22;47127;47.516;8.596;2023-04-10T00:21:46;7.40;99.90
61253;DHT22;47127;47.516;8.596;2023-04-10T00:24:12;7.40;99.90
61253;DHT22;47127;47.516;8.596;2023-04-10T00:26:37;7.30;99.90
61253;DHT22;47127;47.516;8.596;2023-04-10T00:29:03;7.10;99.90
61253;DHT22;47127;47.516;8.596;2023-04-10T00:31:29;7.10;99.90
61253;DHT22;47127;47.516;8.596;2023-04-10T00:33:55;7.00;99.90
61253;DHT22;47127;47.516;8.596;2023-04-10T00:36:20;7.10;99.90
61253;DHT22;47127;47.516;8.596;2023-04-10T00:38:46;7.10;99.90
61253;DHT22;47127;47.516;8.596;2023-04-10T00:41:13;7.00;99.90
61253;DHT22;47127;47.516;8.596;2023-04-10T00:43:38;7.00;99.90
61253;DHT22;47127;47.516;8.596;2023-04-10T00:46:04;6.90;99.90
61253;DHT22;47127;47.516;8.596;2023-04-10T00:48:31;7.00;99.90
61253;DHT22;47127;47.516;8.596;2023-04-10T00:50:58;6.90;99.90
61253;DHT22;47127;47.516;8.596;2023-04-10T00:53:24;7.00;99.90
61253;DHT22;47127;47.516;8.596;2023-04-10T00:55:49;7.10;99.90
61253;DHT22;47127;47.516;8.596;2023-04-10T00:58:15;7.00;99.90
61253;DHT22;47127;47.516;8.596;2023-04-10T01:00:41;6.90;99.90
61253;DHT22;47127;47.516;8.596;2023-04-10T01:03:07;6.90;99.90
61253;DHT22;47127;47.516;8.596;2023-04-10T01:06:04;6.90;99.90
61253;DHT22;47127;47.516;8.596;2023-04-10T01:11:29;6.90;99.90
61253;DHT22;47127;47.516;8.596;2023-04-10T01:14:06;7.00;99.90
61253;DHT22;47127;47.516;8.596;2023-04-10T01:16:45;6.80;99.90
61253;DHT22;47127;47.516;8.596;2023-04-10T01:19:30;6.80;99.90
61253;DHT22;47127;47.516;8.596;2023-04-10T01:22:01;6.60;99.90
61253;DHT22;47127;47.516;8.596;2023-04-10T01:30:21;6.60;99.90
61253;DHT22;47127;47.516;8.596;2023-04-10T01:32:47;6.40;99.90
61253;DHT22;47127;47.516;8.596;2023-04-10T01:35:14;6.30;99.90
61253;DHT22;47127;47.516;8.596;2023-04-10T01:37:41;6.30;99.90
61253;DHT22;47127;47.516;8.596;2023-04-10T01:40:10;6.40;99.90
61253;DHT22;47127;47.516;8.596;2023-04-10T01:42:43;6.40;99.90
61253;DHT22;47127;47.516;8.596;2023-04-10T01:45:12;6.40;99.90
61253;DHT22;47127;47.516;8.596;2023-04-10T01:47:41;6.40;99.90
61253;DHT22;47127;47.516;8.596;2023-04-10T01:50:08;6.40;99.90
61253;DHT22;47127;47.516;8.596;2023-04-10T01:52:34;6.30;99.90
61253;DHT22;47127;47.516;8.596;2023-04-10T01:55:01;6.30;99.90
61253;DHT22;47127;47.516;8.596;2023-04-10T01:57:28;6.30;99.90
61253;DHT22;47127;47.516;8.596;2023-04-10T01:59:56;6.20;99.90
61253;DHT22;47127;47.516;8.596;2023-04-10T02:02:22;6.10;99.90
61253;DHT22;47127;47.516;8.596;2023-04-10T02:04:47;6.10;99.90
61253;DHT22;47127;47.516;8.596;2023-04-10T02:12:38;6.00;99.90
61253;DHT22;47127;47.516;8.596;2023-04-10T02:15:07;5.90;99.90
61253;DHT22;47127;47.516;8.596;2023-04-10T02:17:34;5.90;99.90
61253;DHT22;47127;47.516;8.596;2023-04-10T02:20:01;5.90;99.90
61253;DHT22;47127;47.516;8.596;2023-04-10T02:22:28;6.00;99.90
61253;DHT22;47127;47.516;8.596;2023-04-10T02:24:54;6.10;99.90
61253;DHT22;47127;47.516;8.596;2023-04-10T02:27:32;6.00;99.90
61253;DHT22;47127;47.516;8.596;2023-04-10T02:29:58;6.00;99.90
61253;DHT22;47127;47.516;8.596;2023-04-10T02:32:24;5.80;99.90
61253;DHT22;47127;47.516;8.596;2023-04-10T02:34:49;5.90;99.90
61253;DHT22;47127;47.516;8.596;2023-04-10T02:37:15;5.70;99.90
61253;DHT22;47127;47.516;8.596;2023-04-10T02:39:41;5.60;99.90
61253;DHT22;47127;47.516;8.596;2023-04-10T02:42:06;5.70;99.90
61253;DHT22;47127;47.516;8.596;2023-04-10T02:44:32;5.80;99.90
61253;DHT22;47127;47.516;8.596;2023-04-10T02:46:59;5.80;99.90
61253;DHT22;47127;47.516;8.596;2023-04-10T02:49:24;5.80;99.90
61253;DHT22;47127;47.516;8.596;2023-04-10T02:51:50;5.80;99.90
61253;DHT22;47127;47.516;8.596;2023-04-10T02:54:15;5.70;99.90
61253;DHT22;47127;47.516;8.596;2023-04-10T02:56:41;5.80;99.90
61253;DHT22;47127;47.516;8.596;2023-04-10T02:59:06;5.80;99.90
61253;DHT22;47127;47.516;8.596;2023-04-10T03:01:32;5.70;99.90
61253;DHT22;47127;47.516;8.596;2023-04-10T03:03:58;5.60;99.90
61253;DHT22;47127;47.516;8.596;2023-04-10T03:06:24;5.60;99.90
61253;DHT22;47127;47.516;8.596;2023-04-10T03:08:52;5.50;99.90
61253;DHT22;47127;47.516;8.596;2023-04-10T03:11:19;7.10;99.90
61253;DHT22;47127;47.516;8.596;2023-04-10T03:13:45;5.40;99.90
61253;DHT22;47127;47.516;8.596;2023-04-10T03:16:10;5.30;99.90
61253;DHT22;47127;47.516;8.596;2023-04-10T03:18:36;5.00;99.90
61253;DHT22;47127;47.516;8.596;2023-04-10T03:21:01;4.90;99.90
61253;DHT22;47127;47.516;8.596;2023-04-10T03:23:27;5.00;99.90
61253;DHT22;47127;47.516;8.596;2023-04-10T03:25:54;5.10;99.90
61253;DHT22;47127;47.516;8.596;2023-04-10T03:28:20;5.00;99.90
61253;DHT22;47127;47.516;8.596;2023-04-10T03:30:47;4.80;99.90
61253;DHT22;47127;47.516;8.596;2023-04-10T03:33:14;4.70;99.90
61253;DHT22;47127;47.516;8.596;2023-04-10T03:35:40;4.70;99.90
61253;DHT22;47127;47.516;8.596;2023-04-10T03:38:05;4.80;99.90
61253;DHT22;47127;47.516;8.596;2023-04-10T03:40:31;4.70;99.90
61253;DHT22;47127;47.516;8.596;2023-04-10T03:42:58;4.70;99.90
61253;DHT22;47127;47.516;8.596;2023-04-10T03:45:24;4.70;99.90
61253;DHT22;47127;47.516;8.596;2023-04-10T03:47:51;4.80;99.90
61253;DHT22;47127;47.516;8.596;2023-04-10T03:50:16;4.80;99.90
61253;DHT22;47127;47.516;8.596;2023-04-10T03:52:42;4.90;99.90
61253;DHT22;47127;47.516;8.596;2023-04-10T03:55:08;4.70;99.90
61253;DHT22;47127;47.516;8.596;2023-04-10T03:57:33;4.50;99.90
61253;DHT22;47127;47.516;8.596;2023-04-10T03:59:59;4.70;99.90
61253;DHT22;47127;47.516;8.596;2023-04-10T04:02:24;4.80;99.90
61253;DHT22;47127;47.516;8.596;2023-04-10T04:04:52;4.90;99.90
61253;DHT22;47127;47.516;8.596;2023-04-10T04:07:17;5.00;99.90
61253;DHT22;47127;47.516;8.596;2023-04-10T04:09:43;4.90;99.90
61253;DHT22;47127;47.516;8.596;2023-04-10T04:12:08;4.90;99.90
61253;DHT22;47127;47.516;8.596;2023-04-10T04:14:34;5.00;99.90
61253;DHT22;47127;47.516;8.596;2023-04-10T04:17:00;5.10;99.90
61253;DHT22;47127;47.516;8.596;2023-04-10T04:19:25;5.10;99.90
61253;DHT22;47127;47.516;8.596;2023-04-10T04:21:51;4.90;99.90
61253;DHT22;47127;47.516;8.596;2023-04-10T04:24:17;4.90;99.90
61253;DHT22;47127;47.516;8.596;2023-04-10T04:26:42;4.90;99.90
61253;DHT22;47127;47.516;8.596;2023-04-10T04:29:08;4.80;99.90
61253;DHT22;47127;47.516;8.596;2023-04-10T04:31:33;4.70;99.90
61253;DHT22;47127;47.516;8.596;2023-04-10T04:33:59;4.80;99.90
61253;DHT22;47127;47.516;8.596;2023-04-10T04:36:25;4.80;99.90
61253;DHT22;47127;47.516;8.596;2023-04-10T04:38:53;4.90;99.90
61253;DHT22;47127;47.516;8.596;2023-04-10T04:41:18;4.80;99.90
61253;DHT22;47127;47.516;8.596;2023-04-10T04:43:47;4.70;99.90
61253;DHT22;47127;47.516;8.596;2023-04-10T04:46:13;4.70;99.90
61253;DHT22;47127;47.516;8.596;2023-04-10T04:48:40;4.50;99.90
61253;DHT22;47127;47.516;8.596;2023-04-10T04:51:06;4.40;99.90
61253;DHT22;47127;47.516;8.596;2023-04-10T04:53:32;4.50;99.90
61253;DHT22;47127;47.516;8.596;2023-04-10T04:55:57;4.50;99.90
61253;DHT22;47127;47.516;8.596;2023-04-10T04:58:23;4.70;99.90
61253;DHT22;47127;47.516;8.596;2023-04-10T05:00:50;4.70;99.90
61253;DHT22;47127;47.516;8.596;2023-04-10T05:03:16;4.80;99.90
61253;DHT22;47127;47.516;8.596;2023-04-10T05:05:42;4.80;99.90
61253;DHT22;47127;47.516;8.596;2023-04-10T05:08:07;4.80;99.90
61253;DHT22;47127;47.516;8.596;2023-04-10T05:10:33;4.80;99.90
61253;DHT22;47127;47.516;8.596;2023-04-10T05:12:59;4.80;99.90
61253;DHT22;47127;47.516;8.596;2023-04-10T05:15:25;4.70;99.90
61253;DHT22;47127;47.516;8.596;2023-04-10T05:17:50;4.80;99.90
61253;DHT22;47127;47.516;8.596;2023-04-10T05:20:17;4.80;99.90
61253;DHT22;47127;47.516;8.596;2023-04-10T05:22:43;4.70;99.90
61253;DHT22;47127;47.516;8.596;2023-04-10T05:25:09;4.80;99.90
61253;DHT22;47127;47.516;8.596;2023-04-10T05:27:34;4.90;99.90
61253;DHT22;47127;47.516;8.596;2023-04-10T05:30:00;5.00;99.90
61253;DHT22;47127;47.516;8.596;2023-04-10T05:32:25;4.90;99.90
61253;DHT22;47127;47.516;8.596;2023-04-10T05:34:51;5.00;99.90
61253;DHT22;47127;47.516;8.596;2023-04-10T05:37:16;5.00;99.90
61253;DHT22;47127;47.516;8.596;2023-04-10T05:39:42;5.00;99.90
61253;DHT22;47127;47.516;8.596;2023-04-10T05:42:08;5.10;99.90
61253;DHT22;47127;47.516;8.596;2023-04-10T05:44:33;5.10;99.90
61253;DHT22;47127;47.516;8.596;2023-04-10T05:46:59;5.10;99.90
61253;DHT22;47127;47.516;8.596;2023-04-10T05:49:24;5.20;99.90
61253;DHT22;47127;47.516;8.596;2023-04-10T05:51:50;5.20;99.90
61253;DHT22;47127;47.516;8.596;2023-04-10T05:54:17;5.30;99.90
61253;DHT22;47127;47.516;8.596;2023-04-10T05:56:42;5.20;99.90
61253;DHT22;47127;47.516;8.596;2023-04-10T05:59:08;5.20;99.90
61253;DHT22;47127;47.516;8.596;2023-04-10T06:01:33;5.30;99.90
61253;DHT22;47127;47.516;8.596;2023-04-10T06:03:59;5.30;99.90
61253;DHT22;47127;47.516;8.596;2023-04-10T06:06:24;5.40;99.90
61253;DHT22;47127;47.516;8.596;2023-04-10T06:08:51;5.50;99.90
61253;DHT22;47127;47.516;8.596;2023-04-10T06:11:17;5.40;99.90
61253;DHT22;47127;47.516;8.596;2023-04-10T06:13:42;5.30;99.90
61253;DHT22;47127;47.516;8.596;2023-04-10T06:16:08;5.40;99.90
61253;DHT22;47127;47.516;8.596;2023-04-10T06:18:34;5.30;99.90
61253;DHT22;47127;47.516;8.596;2023-04-10T06:20:59;5.40;99.90
61253;DHT22;47127;47.516;8.596;2023-04-10T06:23:27;5.30;99.90
61253;DHT22;47127;47.516;8.596;2023-04-10T06:25:53;5.50;99.90
61253;DHT22;47127;47.516;8.596;2023-04-10T06:28:19;5.60;99.90
61253;DHT22;47127;47.516;8.596;2023-04-10T06:30:45;5.70;99.90
61253;DHT22;47127;47.516;8.596;2023-04-10T06:33:10;5.70;99.90
61253;DHT22;47127;47.516;8.596;2023-04-10T06:35:36;5.90;99.90
61253;DHT22;47127;47.516;8.596;2023-04-10T06:38:05;5.80;99.90
61253;DHT22;47127;47.516;8.596;2023-04-10T06:40:31;5.90;99.90
61253;DHT22;47127;47.516;8.596;2023-04-10T06:42:58;5.80;99.90
61253;DHT22;47127;47.516;8.596;2023-04-10T06:45:24;5.90;99.90
61253;DHT22;47127;47.516;8.596;2023-04-10T06:47:50;5.90;99.90
61253;DHT22;47127;47.516;8.596;2023-04-10T06:50:16;6.00;99.90
61253;DHT22;47127;47.516;8.596;2023-04-10T06:52:42;6.00;99.90
61253;DHT22;47127;47.516;8.596;2023-04-10T06:55:08;6.10;99.90
61253;DHT22;47127;47.516;8.596;2023-04-10T06:57:33;6.10;99.90
61253;DHT22;47127;47.516;8.596;2023-04-10T06:59:59;6.20;99.90
61253;DHT22;47127;47.516;8.596;2023-04-10T07:02:25;6.30;99.90
61253;DHT22;47127;47.516;8.596;2023-04-10T07:04:50;6.50;99.90
61253;DHT22;47127;47.516;8.596;2023-04-10T07:07:16;6.40;99.90
61253;DHT22;47127;47.516;8.596;2023-04-10T07:09:43;6.50;99.90
61253;DHT22;47127;47.516;8.596;2023-04-10T07:12:09;6.60;99.90
61253;DHT22;47127;47.516;8.596;2023-04-10T07:14:35;6.60;99.90
61253;DHT22;47127;47.516;8.596;2023-04-10T07:17:01;6.90;99.90
61253;DHT22;47127;47.516;8.596;2023-04-10T07:19:28;7.00;99.90
61253;DHT22;47127;47.516;8.596;2023-04-10T07:21:53;7.10;99.90
61253;DHT22;47127;47.516;8.596;2023-04-10T07:24:19;7.20;99.90
61253;DHT22;47127;47.516;8.596;2023-04-10T07:26:45;7.40;99.90
61253;DHT22;47127;47.516;8.596;2023-04-10T07:29:11;7.50;99.90
61253;DHT22;47127;47.516;8.596;2023-04-10T07:31:38;7.60;99.90
61253;DHT22;47127;47.516;8.596;2023-04-10T07:34:04;7.70;99.90
61253;DHT22;47127;47.516;8.596;2023-04-10T07:36:29;7.90;99.90
61253;DHT22;47127;47.516;8.596;2023-04-10T07:38:56;8.00;99.90
61253;DHT22;47127;47.516;8.596;2023-04-10T07:41:21;8.30;99.90
61253;DHT22;47127;47.516;8.596;2023-04-10T07:43:48;8.50;99.90
61253;DHT22;47127;47.516;8.596;2023-04-10T07:46:14;8.60;99.90
61253;DHT22;47127;47.516;8.596;2023-04-10T07:48:40;8.70;99.90
61253;DHT22;47127;47.516;8.596;2023-04-10T07:51:06;8.70;99.90
61253;DHT22;47127;47.516;8.596;2023-04-10T07:53:34;8.90;99.90
61253;DHT22;47127;47.516;8.596;2023-04-10T07:56:00;9.10;99.90
61253;DHT22;47127;47.516;8.596;2023-04-10T07:58:26;9.30;99.90
61253;DHT22;47127;47.516;8.596;2023-04-10T08:00:51;9.10;99.90
61253;DHT22;47127;47.516;8.596;2023-04-10T08:03:17;9.30;99.90
61253;DHT22;47127;47.516;8.596;2023-04-10T08:05:43;9.40;99.90
61253;DHT22;47127;47.516;8.596;2023-04-10T08:08:08;9.60;99.90
61253;DHT22;47127;47.516;8.596;2023-04-10T08:10:37;9.70;99.90
61253;DHT22;47127;47.516;8.596;2023-04-10T08:13:04;9.80;99.90
61253;DHT22;47127;47.516;8.596;2023-04-10T08:15:30;9.90;99.90
61253;DHT22;47127;47.516;8.596;2023-04-10T08:17:55;10.10;99.90
61253;DHT22;47127;47.516;8.596;2023-04-10T08:20:21;10.10;99.90
61253;DHT22;47127;47.516;8.596;2023-04-10T08:22:47;10.20;99.90
61253;DHT22;47127;47.516;8.596;2023-04-10T08:25:12;10.30;99.90
61253;DHT22;47127;47.516;8.596;2023-04-10T08:27:38;10.30;99.90
61253;DHT22;47127;47.516;8.596;2023-04-10T08:30:04;10.50;99.90
61253;DHT22;47127;47.516;8.596;2023-04-10T08:32:29;10.50;99.90
61253;DHT22;47127;47.516;8.596;2023-04-10T08:34:55;10.60;99.90
61253;DHT22;47127;47.516;8.596;2023-04-10T08:37:22;10.60;99.90
61253;DHT22;47127;47.516;8.596;2023-04-10T08:39:48;10.40;99.90
61253;DHT22;47127;47.516;8.596;2023-04-10T08:42:14;10.70;99.90
61253;DHT22;47127;47.516;8.596;2023-04-10T08:44:40;10.70;99.90
61253;DHT22;47127;47.516;8.596;2023-04-10T08:47:07;10.70;99.90
61253;DHT22;47127;47.516;8.596;2023-04-10T08:49:53;10.80;99.90
61253;DHT22;47127;47.516;8.596;2023-04-10T08:52:21;11.00;99.90
61253;DHT22;47127;47.516;8.596;2023-04-10T08:54:50;10.90;99.90
61253;DHT22;47127;47.516;8.596;2023-04-10T08:57:18;10.90;99.80
61253;DHT22;47127;47.516;8.596;2023-04-10T08:59:46;11.00;99.90
61253;DHT22;47127;47.516;8.596;2023-04-10T09:02:12;11.10;99.90
61253;DHT22;47127;47.516;8.596;2023-04-10T09:04:37;11.20;99.90
61253;DHT22;47127;47.516;8.596;2023-04-10T09:07:03;11.20;99.60
61253;DHT22;47127;47.516;8.596;2023-04-10T09:09:28;11.30;99.70
61253;DHT22;47127;47.516;8.596;2023-04-10T09:11:59;11.40;99.20
61253;DHT22;47127;47.516;8.596;2023-04-10T09:14:26;11.50;98.40
61253;DHT22;47127;47.516;8.596;2023-04-10T09:16:53;11.20;98.40
61253;DHT22;47127;47.516;8.596;2023-04-10T09:19:32;11.40;98.90
61253;DHT22;47127;47.516;8.596;2023-04-10T09:21:58;11.50;99.30
61253;DHT22;47127;47.516;8.596;2023-04-10T09:24:24;11.70;99.00
61253;DHT22;47127;47.516;8.596;2023-04-10T09:26:50;11.70;98.50
61253;DHT22;47127;47.516;8.596;2023-04-10T09:29:16;11.90;99.30
61253;DHT22;47127;47.516;8.596;2023-04-10T09:31:41;12.10;98.50
61253;DHT22;47127;47.516;8.596;2023-04-10T09:34:16;12.20;98.10
61253;DHT22;47127;47.516;8.596;2023-04-10T09:36:43;12.30;97.60
61253;DHT22;47127;47.516;8.596;2023-04-10T09:39:10;12.40;96.50
61253;DHT22;47127;47.516;8.596;2023-04-10T09:41:50;12.60;96.70
61253;DHT22;47127;47.516;8.596;2023-04-10T09:44:18;12.50;96.90
61253;DHT22;47127;47.516;8.596;2023-04-10T09:46:52;12.60;95.60
61253;DHT22;47127;47.516;8.596;2023-04-10T09:49:18;12.70;95.50
61253;DHT22;47127;47.516;8.596;2023-04-10T09:51:43;12.90;95.00
61253;DHT22;47127;47.516;8.596;2023-04-10T09:54:09;13.00;94.60
61253;DHT22;47127;47.516;8.596;2023-04-10T09:56:37;13.20;94.60
61253;DHT22;47127;47.516;8.596;2023-04-10T09:59:05;13.50;94.30
61253;DHT22;47127;47.516;8.596;2023-04-10T10:01:32;13.50;94.30
61253;DHT22;47127;47.516;8.596;2023-04-10T10:04:03;13.60;93.70
61253;DHT22;47127;47.516;8.596;2023-04-10T10:06:32;13.60;93.10
61253;DHT22;47127;47.516;8.596;2023-04-10T10:09:03;13.50;93.40
61253;DHT22;47127;47.516;8.596;2023-04-10T10:11:31;13.70;93.80
61253;DHT22;47127;47.516;8.596;2023-04-10T10:13:59;13.70;93.20
61253;DHT22;47127;47.516;8.596;2023-04-10T10:16:55;13.80;92.80
61253;DHT22;47127;47.516;8.596;2023-04-10T10:20:02;13.90;93.50
61253;DHT22;47127;47.516;8.596;2023-04-10T10:22:28;14.10;92.70
61253;DHT22;47127;47.516;8.596;2023-04-10T10:24:55;14.10;92.70
61253;DHT22;47127;47.516;8.596;2023-04-10T10:27:24;14.10;92.90
61253;DHT22;47127;47.516;8.596;2023-04-10T10:29:52;14.30;93.10
61253;DHT22;47127;47.516;8.596;2023-04-10T10:32:18;14.30;92.60
61253;DHT22;47127;47.516;8.596;2023-04-10T10:34:45;14.40;92.50
61253;DHT22;47127;47.516;8.596;2023-04-10T10:37:11;14.50;92.10
61253;DHT22;47127;47.516;8.596;2023-04-10T10:39:52;14.50;91.30
61253;DHT22;47127;47.516;8.596;2023-04-10T10:45:12;14.80;91.20
61253;DHT22;47127;47.516;8.596;2023-04-10T10:47:46;15.60;91.80
61253;DHT22;47127;47.516;8.596;2023-04-10T10:50:12;15.00;90.90
61253;DHT22;47127;47.516;8.596;2023-04-10T10:52:45;15.10;91.00
61253;DHT22;47127;47.516;8.596;2023-04-10T10:58:02;15.10;90.20
61253;DHT22;47127;47.516;8.596;2023-04-10T11:11:05;15.60;85.90
61253;DHT22;47127;47.516;8.596;2023-04-10T11:13:32;15.60;85.30
61253;DHT22;47127;47.516;8.596;2023-04-10T11:15:59;15.80;85.80
61253;DHT22;47127;47.516;8.596;2023-04-10T11:26:36;16.50;81.40
61253;DHT22;47127;47.516;8.596;2023-04-10T11:32:02;16.50;80.30
61253;DHT22;47127;47.516;8.596;2023-04-10T11:34:29;16.80;80.50
61253;DHT22;47127;47.516;8.596;2023-04-10T11:36:59;17.10;78.70
61253;DHT22;47127;47.516;8.596;2023-04-10T11:39:29;17.20;77.70
61253;DHT22;47127;47.516;8.596;2023-04-10T11:41:54;17.20;76.80
61253;DHT22;47127;47.516;8.596;2023-04-10T11:44:31;17.00;76.80
61253;DHT22;47127;47.516;8.596;2023-04-10T11:46:59;17.10;77.50
61253;DHT22;47127;47.516;8.596;2023-04-10T11:49:32;17.00;76.80
61253;DHT22;47127;47.516;8.596;2023-04-10T11:51:58;17.40;77.80
61253;DHT22;47127;47.516;8.596;2023-04-10T11:54:27;17.70;75.60
61253;DHT22;47127;47.516;8.596;2023-04-10T11:57:05;17.50;75.00
61253;DHT22;47127;47.516;8.596;2023-04-10T11:59:33;17.60;74.70
61253;DHT22;47127;47.516;8.596;2023-04-10T12:02:13;18.00;74.70
61253;DHT22;47127;47.516;8.596;2023-04-10T12:04:39;17.80;73.80
61253;DHT22;47127;47.516;8.596;2023-04-10T12:07:06;17.90;72.30
61253;DHT22;47127;47.516;8.596;2023-04-10T12:09:31;18.20;71.60
61253;DHT22;47127;47.516;8.596;2023-04-10T12:11:59;18.30;73.00
61253;DHT22;47127;47.516;8.596;2023-04-10T12:14:35;18.40;70.60
61253;DHT22;47127;47.516;8.596;2023-04-10T12:17:02;18.10;68.90
61253;DHT22;47127;47.516;8.596;2023-04-10T12:19:28;18.30;70.00
61253;DHT22;47127;47.516;8.596;2023-04-10T12:21:56;18.20;69.70
61253;DHT22;47127;47.516;8.596;2023-04-10T12:24:42;18.40;69.00
61253;DHT22;47127;47.516;8.596;2023-04-10T12:29:41;18.70;65.90
61253;DHT22;47127;47.516;8.596;2023-04-10T12:32:07;19.00;64.80
61253;DHT22;47127;47.516;8.596;2023-04-10T12:34:33;18.90;63.60
61253;DHT22;47127;47.516;8.596;2023-04-10T12:37:00;19.00;63.90
61253;DHT22;47127;47.516;8.596;2023-04-10T12:39:27;19.30;63.10
61253;DHT22;47127;47.516;8.596;2023-04-10T12:41:52;19.10;63.00
61253;DHT22;47127;47.516;8.596;2023-04-10T12:44:18;19.00;65.60
61253;DHT22;47127;47.516;8.596;2023-04-10T12:46:45;19.30;64.60
61253;DHT22;47127;47.516;8.596;2023-04-10T12:49:15;19.50;64.50
61253;DHT22;47127;47.516;8.596;2023-04-10T12:51:48;19.50;63.40
61253;DHT22;47127;47.516;8.596;2023-04-10T12:54:34;19.10;65.40
61253;DHT22;47127;47.516;8.596;2023-04-10T12:57:02;19.00;65.00
61253;DHT22;47127;47.516;8.596;2023-04-10T12:59:30;18.90;64.20
61253;DHT22;47127;47.516;8.596;2023-04-10T13:01:57;18.70;67.10
61253;DHT22;47127;47.516;8.596;2023-04-10T13:04:22;18.80;65.10
61253;DHT22;47127;47.516;8.596;2023-04-10T13:06:49;18.90;64.30
61253;DHT22;47127;47.516;8.596;2023-04-10T13:09:17;19.00;63.60
61253;DHT22;47127;47.516;8.596;2023-04-10T13:11:42;19.00;63.60
61253;DHT22;47127;47.516;8.596;2023-04-10T13:14:08;18.90;62.50
61253;DHT22;47127;47.516;8.596;2023-04-10T13:16:35;19.00;62.40
61253;DHT22;47127;47.516;8.596;2023-04-10T13:19:01;19.20;63.10
61253;DHT22;47127;47.516;8.596;2023-04-10T13:21:27;19.10;62.40
61253;DHT22;47127;47.516;8.596;2023-04-10T13:23:54;19.00;63.30
61253;DHT22;47127;47.516;8.596;2023-04-10T13:26:20;19.10;61.10
61253;DHT22;47127;47.516;8.596;2023-04-10T13:28:46;19.30;59.50
61253;DHT22;47127;47.516;8.596;2023-04-10T13:31:11;19.30;59.30
61253;DHT22;47127;47.516;8.596;2023-04-10T13:33:40;19.10;60.80
61253;DHT22;47127;47.516;8.596;2023-04-10T13:36:06;19.00;58.50
61253;DHT22;47127;47.516;8.596;2023-04-10T13:38:32;18.60;59.40
61253;DHT22;47127;47.516;8.596;2023-04-10T13:40:58;18.60;61.40
61253;DHT22;47127;47.516;8.596;2023-04-10T13:43:23;18.60;61.40
61253;DHT22;47127;47.516;8.596;2023-04-10T13:45:49;18.60;59.00
61253;DHT22;47127;47.516;8.596;2023-04-10T13:48:14;18.70;58.40
61253;DHT22;47127;47.516;8.596;2023-04-10T13:50:42;18.60;57.20
61253;DHT22;47127;47.516;8.596;2023-04-10T13:53:08;18.50;59.10
61253;DHT22;47127;47.516;8.596;2023-04-10T13:55:34;18.40;59.50
61253;DHT22;47127;47.516;8.596;2023-04-10T13:58:02;18.60;59.60
61253;DHT22;47127;47.516;8.596;2023-04-10T14:00:27;18.90;58.90
61253;DHT22;47127;47.516;8.596;2023-04-10T14:02:53;19.10;59.10
61253;DHT22;47127;47.516;8.596;2023-04-10T14:05:18;19.40;57.50
61253;DHT22;47127;47.516;8.596;2023-04-10T14:07:44;19.30;61.00
61253;DHT22;47127;47.516;8.596;2023-04-10T14:10:11;19.00;57.50
61253;DHT22;47127;47.516;8.596;2023-04-10T14:12:36;19.10;57.90
61253;DHT22;47127;47.516;8.596;2023-04-10T14:15:02;19.30;57.80
61253;DHT22;47127;47.516;8.596;2023-04-10T14:17:27;19.20;58.40
61253;DHT22;47127;47.516;8.596;2023-04-10T14:19:53;18.90;59.40
61253;DHT22;47127;47.516;8.596;2023-04-10T14:22:19;18.80;59.50
61253;DHT22;47127;47.516;8.596;2023-04-10T14:24:45;18.70;57.50
61253;DHT22;47127;47.516;8.596;2023-04-10T14:27:11;18.60;58.80
61253;DHT22;47127;47.516;8.596;2023-04-10T14:29:36;18.60;60.40
61253;DHT22;47127;47.516;8.596;2023-04-10T14:32:02;18.50;60.00
61253;DHT22;47127;47.516;8.596;2023-04-10T14:34:28;18.80;59.10
61253;DHT22;47127;47.516;8.596;2023-04-10T14:36:54;19.00;57.80
61253;DHT22;47127;47.516;8.596;2023-04-10T14:39:22;19.10;61.20
61253;DHT22;47127;47.516;8.596;2023-04-10T14:41:48;18.70;57.40
61253;DHT22;47127;47.516;8.596;2023-04-10T14:44:13;18.60;58.40
61253;DHT22;47127;47.516;8.596;2023-04-10T14:46:39;18.70;59.10
61253;DHT22;47127;47.516;8.596;2023-04-10T14:49:04;18.50;58.90
61253;DHT22;47127;47.516;8.596;2023-04-10T14:51:30;18.60;58.00
61253;DHT22;47127;47.516;8.596;2023-04-10T14:53:56;18.50;59.10
61253;DHT22;47127;47.516;8.596;2023-04-10T14:56:21;18.50;56.30
61253;DHT22;47127;47.516;8.596;2023-04-10T14:58:47;18.40;57.20
61253;DHT22;47127;47.516;8.596;2023-04-10T15:01:12;18.40;58.80
61253;DHT22;47127;47.516;8.596;2023-04-10T15:03:38;18.50;58.50
61253;DHT22;47127;47.516;8.596;2023-04-10T15:06:04;18.50;57.50
61253;DHT22;47127;47.516;8.596;2023-04-10T15:08:30;18.50;58.10
61253;DHT22;47127;47.516;8.596;2023-04-10T15:10:56;18.50;59.80
61253;DHT22;47127;47.516;8.596;2023-04-10T15:13:21;18.60;57.30
61253;DHT22;47127;47.516;8.596;2023-04-10T15:15:47;18.60;56.80
61253;DHT22;47127;47.516;8.596;2023-04-10T15:18:14;18.50;56.70
61253;DHT22;47127;47.516;8.596;2023-04-10T15:20:40;18.30;57.90
61253;DHT22;47127;47.516;8.596;2023-04-10T15:23:05;18.30;58.70
61253;DHT22;47127;47.516;8.596;2023-04-10T15:25:33;18.30;58.90
61253;DHT22;47127;47.516;8.596;2023-04-10T15:27:58;18.50;57.30
61253;DHT22;47127;47.516;8.596;2023-04-10T15:30:24;18.60;58.80
61253;DHT22;47127;47.516;8.596;2023-04-10T15:32:49;18.60;58.20
61253;DHT22;47127;47.516;8.596;2023-04-10T15:35:15;18.50;57.60
61253;DHT22;47127;47.516;8.596;2023-04-10T15:37:41;18.50;58.20
61253;DHT22;47127;47.516;8.596;2023-04-10T15:40:07;18.40;57.80
61253;DHT22;47127;47.516;8.596;2023-04-10T15:42:33;18.40;57.00
61253;DHT22;47127;47.516;8.596;2023-04-10T15:44:59;18.50;56.80
61253;DHT22;47127;47.516;8.596;2023-04-10T15:47:25;18.60;56.20
61253;DHT22;47127;47.516;8.596;2023-04-10T15:49:51;18.50;57.20
61253;DHT22;47127;47.516;8.596;2023-04-10T15:52:16;18.20;57.20
61253;DHT22;47127;47.516;8.596;2023-04-10T15:54:42;18.10;55.70
61253;DHT22;47127;47.516;8.596;2023-04-10T15:57:08;18.00;56.50
61253;DHT22;47127;47.516;8.596;2023-04-10T15:59:33;18.00;53.90
61253;DHT22;47127;47.516;8.596;2023-04-10T16:02:00;17.80;55.40
61253;DHT22;47127;47.516;8.596;2023-04-10T16:04:26;17.70;54.00
61253;DHT22;47127;47.516;8.596;2023-04-10T16:06:51;17.50;52.40
61253;DHT22;47127;47.516;8.596;2023-04-10T16:09:17;17.40;53.10
61253;DHT22;47127;47.516;8.596;2023-04-10T16:11:43;17.40;53.60
61253;DHT22;47127;47.516;8.596;2023-04-10T16:14:08;17.30;53.30
61253;DHT22;47127;47.516;8.596;2023-04-10T16:16:34;17.20;53.80
61253;DHT22;47127;47.516;8.596;2023-04-10T16:18:59;17.20;53.80
61253;DHT22;47127;47.516;8.596;2023-04-10T16:21:25;17.30;52.70